Time;durP1;ratioP1;P1;durP2;ratioP2;P2;SDS_P1;SDS_P2;PMS_P1;PMS_P2;Temp;Humidity;BMP_temperature;BMP_pressure;BME280_temperature;BME280_humidity;BME280_pressure;Samples;Min_cycle;Max_cycle;Signal;HPM_P1;HPM_P2
2021/08/05 00:00:29;;;;;;;8.20;5.13;;;17.10;99.90;;;;;;4418717;28;656068;-71
2021/08/05 00:03:17;;;;;;;7.97;5.03;;;17.10;99.90;;;;;;4436764;28;655701;-71
2021/08/05 00:06:04;;;;;;;11.53;5.33;;;17.10;99.90;;;;;;4424671;28;655324;-71
2021/08/05 00:08:52;;;;;;;7.57;5.20;;;17.10;99.90;;;;;;4429952;28;656366;-71
2021/08/05 00:11:39;;;;;;;8.23;4.90;;;17.10;99.90;;;;;;4412191;28;655611;-71
2021/08/05 00:14:28;;;;;;;7.50;5.23;;;17.00;99.90;;;;;;4431791;28;655903;-71
2021/08/05 00:17:16;;;;;;;7.97;4.73;;;17.00;99.90;;;;;;4402041;28;656471;-71
2021/08/05 00:20:04;;;;;;;10.67;5.00;;;17.00;99.90;;;;;;4402876;28;655680;-71
2021/08/05 00:22:52;;;;;;;11.53;5.10;;;17.00;99.90;;;;;;4438711;28;656869;-71
2021/08/05 00:25:40;;;;;;;8.37;5.10;;;17.00;99.90;;;;;;4400661;28;657523;-71
2021/08/05 00:28:27;;;;;;;11.13;4.90;;;17.10;99.90;;;;;;4427031;28;655208;-71
2021/08/05 00:31:17;;;;;;;7.37;5.07;;;17.10;99.90;;;;;;4406559;28;658123;-71
2021/08/05 00:34:04;;;;;;;8.07;5.07;;;17.10;99.90;;;;;;4401838;28;656149;-71
2021/08/05 00:36:52;;;;;;;6.53;5.00;;;17.10;99.90;;;;;;4433185;28;655535;-71
2021/08/05 00:39:39;;;;;;;7.63;5.47;;;17.00;99.90;;;;;;4397945;28;655731;-71
2021/08/05 00:42:27;;;;;;;9.03;5.63;;;17.10;99.90;;;;;;4434794;28;655831;-71
2021/08/05 00:45:14;;;;;;;6.60;5.33;;;17.10;99.90;;;;;;4409792;28;656358;-71
2021/08/05 00:48:05;;;;;;;6.07;5.13;;;17.10;99.90;;;;;;4429238;28;655678;-71
2021/08/05 00:50:53;;;;;;;9.80;5.50;;;17.10;99.90;;;;;;4425795;28;655444;-71
2021/08/05 00:53:43;;;;;;;8.10;6.00;;;17.10;99.90;;;;;;4432781;28;656177;-71
2021/08/05 00:56:31;;;;;;;8.60;5.83;;;17.10;99.90;;;;;;4409277;28;655386;-71
2021/08/05 00:59:19;;;;;;;6.70;5.50;;;17.00;99.90;;;;;;4405407;28;655195;-71
2021/08/05 01:02:09;;;;;;;7.83;5.57;;;17.00;99.90;;;;;;4427758;28;655818;-71
2021/08/05 01:04:58;;;;;;;9.77;5.80;;;17.00;99.90;;;;;;4392568;28;655751;-71
2021/08/05 01:07:49;;;;;;;8.07;5.43;;;17.00;99.90;;;;;;4409645;28;656874;-71
2021/08/05 01:10:41;;;;;;;7.77;5.20;;;17.00;99.90;;;;;;4414925;28;655474;-71
2021/08/05 01:13:29;;;;;;;12.53;5.60;;;17.00;99.90;;;;;;4400581;28;655277;-71
2021/08/05 01:16:17;;;;;;;7.67;5.37;;;17.00;99.90;;;;;;4424823;28;656734;-71
2021/08/05 01:19:09;;;;;;;7.70;5.60;;;17.00;99.90;;;;;;4406021;28;655750;-71
2021/08/05 01:22:01;;;;;;;9.80;5.70;;;17.00;99.90;;;;;;4400953;28;656346;-71
2021/08/05 01:24:54;;;;;;;7.07;5.23;;;17.00;99.90;;;;;;4377760;28;656181;-71
2021/08/05 01:27:43;;;;;;;8.73;5.40;;;17.00;99.90;;;;;;4390196;28;655633;-70
2021/08/05 01:30:30;;;;;;;10.20;5.37;;;17.00;99.90;;;;;;4397198;28;655855;-71
2021/08/05 01:33:20;;;;;;;8.93;6.00;;;17.00;99.90;;;;;;4416323;28;656535;-71
2021/08/05 01:36:08;;;;;;;11.27;5.70;;;17.00;99.90;;;;;;4428291;28;655883;-71
2021/08/05 01:38:55;;;;;;;7.50;5.20;;;17.00;99.90;;;;;;4439730;28;657555;-71
2021/08/05 01:41:43;;;;;;;6.27;5.27;;;17.00;99.90;;;;;;4419189;28;655637;-71
2021/08/05 01:44:32;;;;;;;9.00;5.30;;;17.00;99.90;;;;;;4429714;28;656367;-71
2021/08/05 01:47:20;;;;;;;6.47;5.40;;;17.00;99.90;;;;;;4409400;28;656488;-71
2021/08/05 01:50:09;;;;;;;8.40;5.40;;;17.00;99.90;;;;;;4398381;28;655812;-71
2021/08/05 01:52:56;;;;;;;10.23;5.40;;;17.00;99.90;;;;;;4413914;28;655283;-71
2021/08/05 01:55:44;;;;;;;6.60;4.97;;;17.00;99.90;;;;;;4396157;28;657242;-71
2021/08/05 01:58:32;;;;;;;9.23;5.53;;;16.90;99.90;;;;;;4415272;28;655116;-71
2021/08/05 02:01:21;;;;;;;7.47;5.40;;;17.00;99.90;;;;;;4414476;28;655438;-71
2021/08/05 02:04:16;;;;;;;8.17;5.40;;;17.00;99.90;;;;;;4413896;28;655994;-70
2021/08/05 02:07:06;;;;;;;6.83;5.30;;;17.00;99.90;;;;;;4414347;28;655370;-71
2021/08/05 02:09:57;;;;;;;6.37;5.60;;;16.90;99.90;;;;;;4414719;28;655710;-71
2021/08/05 02:12:47;;;;;;;8.40;5.90;;;16.90;99.90;;;;;;4398129;28;655649;-70
2021/08/05 02:15:36;;;;;;;9.53;6.10;;;16.90;99.90;;;;;;4393753;28;656475;-70
2021/08/05 02:18:27;;;;;;;20.97;6.80;;;17.00;99.90;;;;;;4409180;28;655328;-71
2021/08/05 02:21:15;;;;;;;9.77;6.97;;;16.90;99.90;;;;;;4396892;28;657209;-71
2021/08/05 02:24:03;;;;;;;11.23;6.70;;;16.90;99.90;;;;;;4412529;28;655296;-71
2021/08/05 02:26:51;;;;;;;10.83;7.40;;;16.90;99.90;;;;;;4440046;28;656710;-70
2021/08/05 02:29:39;;;;;;;9.63;7.10;;;16.90;99.90;;;;;;4413664;28;656482;-71
2021/08/05 02:32:26;;;;;;;11.90;7.37;;;16.80;99.90;;;;;;4427486;28;656104;-71
2021/08/05 02:35:15;;;;;;;9.33;6.97;;;16.90;99.90;;;;;;4404812;28;656712;-70
2021/08/05 02:38:03;;;;;;;13.03;7.33;;;16.80;99.90;;;;;;4414249;28;655606;-70
2021/08/05 02:40:51;;;;;;;9.57;7.27;;;16.80;99.90;;;;;;4449481;28;657827;-70
2021/08/05 02:43:38;;;;;;;10.80;7.33;;;16.80;99.90;;;;;;4416459;28;655603;-70
2021/08/05 02:46:26;;;;;;;12.87;7.70;;;16.70;99.90;;;;;;4434058;28;657451;-70
2021/08/05 02:49:14;;;;;;;9.03;7.63;;;16.70;99.90;;;;;;4419603;28;656729;-70
2021/08/05 02:52:04;;;;;;;9.20;7.17;;;16.60;99.90;;;;;;4421911;28;656854;-70
2021/08/05 02:54:51;;;;;;;8.73;7.07;;;16.60;99.90;;;;;;4402775;28;655848;-70
2021/08/05 02:57:39;;;;;;;10.13;7.10;;;16.60;99.90;;;;;;4410379;28;655746;-70
2021/08/05 03:00:26;;;;;;;9.60;7.60;;;16.60;99.90;;;;;;4418693;28;656203;-70
2021/08/05 03:03:14;;;;;;;11.40;6.97;;;16.50;99.90;;;;;;4402997;28;656096;-70
2021/08/05 03:06:01;;;;;;;9.43;7.03;;;16.50;99.90;;;;;;4426927;28;655778;-70
2021/08/05 03:08:50;;;;;;;9.05;6.80;;;16.50;99.90;;;;;;4412235;28;656192;-68
2021/08/05 03:11:38;;;;;;;8.70;7.07;;;16.40;99.90;;;;;;4428203;28;655553;-68
2021/08/05 03:14:25;;;;;;;11.97;7.40;;;16.40;99.90;;;;;;4443579;28;656725;-68
2021/08/05 03:17:13;;;;;;;11.40;7.40;;;16.40;99.90;;;;;;4410345;28;656769;-68
2021/08/05 03:20:01;;;;;;;11.10;7.85;;;16.30;99.90;;;;;;4418508;28;657529;-68
2021/08/05 03:22:48;;;;;;;13.80;7.97;;;16.30;99.90;;;;;;4404540;28;656673;-68
2021/08/05 03:25:37;;;;;;;10.35;7.82;;;16.30;99.90;;;;;;4424688;28;657107;-68
2021/08/05 03:28:25;;;;;;;11.97;6.67;;;16.20;99.90;;;;;;4412658;28;657407;-68
2021/08/05 03:31:13;;;;;;;9.77;6.63;;;16.20;99.90;;;;;;4425148;28;656261;-69
2021/08/05 03:34:00;;;;;;;10.10;6.80;;;16.20;99.90;;;;;;4444798;28;656074;-69
2021/08/05 03:36:48;;;;;;;10.68;6.30;;;16.10;99.90;;;;;;4415101;28;656555;-68
2021/08/05 03:39:35;;;;;;;9.00;6.47;;;16.10;99.90;;;;;;4442288;28;656743;-69
2021/08/05 03:42:25;;;;;;;11.20;7.13;;;16.00;99.90;;;;;;4422164;28;655481;-69
2021/08/05 03:45:13;;;;;;;11.27;7.57;;;16.00;99.90;;;;;;4432445;28;656901;-68
2021/08/05 03:48:00;;;;;;;13.03;7.60;;;16.00;99.90;;;;;;4429789;28;657792;-68
2021/08/05 03:50:48;;;;;;;13.73;8.37;;;16.00;99.90;;;;;;4414556;28;657038;-68
2021/08/05 03:53:36;;;;;;;15.20;9.30;;;16.00;99.90;;;;;;4442698;28;657328;-69
2021/08/05 03:56:23;;;;;;;12.70;9.60;;;16.00;99.90;;;;;;4410470;28;656799;-69
2021/08/05 03:59:12;;;;;;;12.63;8.87;;;16.00;99.90;;;;;;4424873;28;656675;-68
2021/08/05 04:02:00;;;;;;;15.07;9.50;;;15.90;99.90;;;;;;4401742;28;657092;-68
2021/08/05 04:04:48;;;;;;;11.70;9.03;;;15.90;99.90;;;;;;4409771;28;656388;-69
2021/08/05 04:07:35;;;;;;;12.57;8.97;;;15.90;99.90;;;;;;4425515;28;657463;-68
2021/08/05 04:10:23;;;;;;;11.53;9.40;;;15.90;99.90;;;;;;4401097;28;657127;-69
2021/08/05 04:13:12;;;;;;;12.57;9.00;;;15.90;99.90;;;;;;4433600;28;657003;-69
2021/08/05 04:16:29;;;;;;;11.07;7.50;;;15.90;99.90;;;;;;4419961;28;656966;-69
2021/08/05 04:19:16;;;;;;;11.30;7.97;;;15.80;99.90;;;;;;4410524;28;656987;-69
2021/08/05 04:22:04;;;;;;;11.17;7.37;;;15.80;99.90;;;;;;4421692;28;656287;-69
2021/08/05 04:25:08;;;;;;;16.30;8.03;;;15.80;99.90;;;;;;4455025;28;656207;-69
2021/08/05 04:28:27;;;;;;;9.33;7.50;;;15.80;99.90;;;;;;4429047;28;657575;-69
2021/08/05 04:31:14;;;;;;;9.50;6.87;;;15.80;99.90;;;;;;4417362;28;655538;-68
2021/08/05 04:34:03;;;;;;;10.10;6.63;;;15.80;99.90;;;;;;4442501;28;655297;-68
2021/08/05 04:36:51;;;;;;;7.83;6.60;;;15.80;99.90;;;;;;4432712;28;656758;-68
2021/08/05 04:39:39;;;;;;;10.77;7.23;;;15.80;99.90;;;;;;4434037;28;655354;-69
2021/08/05 04:42:26;;;;;;;9.10;7.17;;;15.90;99.90;;;;;;4444485;28;656597;-69
2021/08/05 04:45:14;;;;;;;10.17;7.10;;;15.90;99.90;;;;;;4413963;28;655590;-69
2021/08/05 04:48:02;;;;;;;11.43;7.20;;;15.90;99.90;;;;;;4438618;28;656784;-69
2021/08/05 04:50:51;;;;;;;7.67;6.70;;;15.90;99.90;;;;;;4412309;28;657080;-69
2021/08/05 04:53:39;;;;;;;6.50;5.37;;;15.90;99.90;;;;;;4422728;28;655597;-69
2021/08/05 04:56:27;;;;;;;7.00;6.17;;;15.90;99.90;;;;;;4442388;28;655765;-69
2021/08/05 04:59:15;;;;;;;6.43;5.47;;;15.90;99.90;;;;;;4419544;28;655965;-69
2021/08/05 05:02:24;;;;;;;7.87;5.70;;;15.90;99.90;;;;;;4525123;28;655401;-65
2021/08/05 05:05:12;;;;;;;7.82;6.07;;;15.90;99.90;;;;;;4418414;28;656930;-65
2021/08/05 05:08:12;;;;;;;8.03;6.30;;;15.90;99.90;;;;;;4418716;28;656766;-65
2021/08/05 05:11:00;;;;;;;8.23;6.20;;;15.90;99.90;;;;;;4394456;28;655552;-66
2021/08/05 05:13:48;;;;;;;10.70;7.33;;;15.90;99.90;;;;;;4429582;28;656138;-65
2021/08/05 05:16:35;;;;;;;8.67;6.73;;;16.00;99.90;;;;;;4437679;28;657112;-65
2021/08/05 05:19:23;;;;;;;8.23;6.87;;;16.00;99.90;;;;;;4418603;28;655538;-65
2021/08/05 05:22:11;;;;;;;9.73;6.87;;;16.00;99.90;;;;;;4446973;28;656666;-66
2021/08/05 05:25:00;;;;;;;9.13;6.73;;;16.00;99.90;;;;;;4416185;28;655455;-65
2021/08/05 05:27:48;;;;;;;7.70;6.17;;;16.10;99.90;;;;;;4443430;28;655984;-65
2021/08/05 05:30:35;;;;;;;9.40;6.60;;;16.10;99.90;;;;;;4437722;28;656357;-65
2021/08/05 05:33:23;;;;;;;8.77;6.37;;;16.10;99.90;;;;;;4426826;28;655223;-66
2021/08/05 05:36:11;;;;;;;8.10;5.70;;;16.20;99.90;;;;;;4422125;28;656247;-66
2021/08/05 05:38:58;;;;;;;8.87;6.27;;;16.20;99.90;;;;;;4405330;28;655628;-65
2021/08/05 05:41:47;;;;;;;7.93;5.77;;;16.20;99.90;;;;;;4432472;28;656768;-66
2021/08/05 05:44:35;;;;;;;7.70;5.20;;;16.30;99.90;;;;;;4407494;28;656131;-66
2021/08/05 05:47:23;;;;;;;6.33;4.70;;;16.30;99.90;;;;;;4419923;28;655982;-65
2021/08/05 05:50:11;;;;;;;6.57;5.20;;;16.30;99.90;;;;;;4419499;28;656659;-65
2021/08/05 05:52:59;;;;;;;5.67;5.00;;;16.30;99.90;;;;;;4395105;28;655805;-66
2021/08/05 05:55:46;;;;;;;5.63;5.00;;;16.30;99.90;;;;;;4427776;28;655615;-65
2021/08/05 05:58:35;;;;;;;6.07;5.33;;;16.30;99.90;;;;;;4407904;28;655938;-65
2021/08/05 06:01:23;;;;;;;6.10;5.40;;;16.30;99.90;;;;;;4414390;28;655469;-65
2021/08/05 06:04:10;;;;;;;6.30;5.33;;;16.30;99.90;;;;;;4444707;28;655875;-66
2021/08/05 06:06:58;;;;;;;7.10;5.23;;;16.40;99.90;;;;;;4430316;28;656415;-66
2021/08/05 06:09:45;;;;;;;7.10;6.00;;;16.40;99.90;;;;;;4438615;28;656527;-65
2021/08/05 06:12:33;;;;;;;7.05;5.40;;;16.50;99.90;;;;;;4418675;28;655740;-65
2021/08/05 06:15:22;;;;;;;6.37;5.03;;;16.50;99.90;;;;;;4447042;28;656739;-66
2021/08/05 06:18:10;;;;;;;6.37;5.10;;;16.50;99.90;;;;;;4422930;28;656334;-66
2021/08/05 06:20:57;;;;;;;6.80;5.07;;;16.50;99.90;;;;;;4441359;28;656081;-65
2021/08/05 06:23:45;;;;;;;7.17;6.03;;;16.50;99.90;;;;;;4422277;28;656561;-66
2021/08/05 06:26:32;;;;;;;6.47;5.37;;;16.60;99.90;;;;;;4435099;28;655741;-66
2021/08/05 06:29:20;;;;;;;5.80;5.00;;;16.70;99.90;;;;;;4412987;28;656563;-65
2021/08/05 06:32:10;;;;;;;5.97;5.30;;;16.80;99.90;;;;;;4438646;28;655487;-66
2021/08/05 06:34:57;;;;;;;6.53;5.10;;;16.80;99.90;;;;;;4437985;28;655349;-66
2021/08/05 06:37:45;;;;;;;7.27;5.23;;;16.90;99.90;;;;;;4409398;28;656997;-66
2021/08/05 06:40:33;;;;;;;5.77;4.30;;;16.90;99.90;;;;;;4421061;28;655186;-65
2021/08/05 06:43:21;;;;;;;6.93;4.70;;;17.00;99.90;;;;;;4428667;28;656715;-66
2021/08/05 06:46:08;;;;;;;5.20;4.70;;;17.00;99.90;;;;;;4407863;28;655669;-65
2021/08/05 06:48:57;;;;;;;6.70;5.37;;;17.10;99.90;;;;;;4432931;28;656652;-66
2021/08/05 06:51:45;;;;;;;9.53;5.23;;;17.20;99.90;;;;;;4407633;28;656612;-66
2021/08/05 06:54:33;;;;;;;3.50;3.20;;;17.30;99.90;;;;;;4446313;28;655913;-66
2021/08/05 06:57:21;;;;;;;4.53;3.50;;;17.40;99.90;;;;;;4434932;28;656544;-65
2021/08/05 07:00:09;;;;;;;3.83;3.43;;;17.50;99.90;;;;;;4409175;28;655998;-65
2021/08/05 07:02:56;;;;;;;3.60;3.20;;;17.60;99.90;;;;;;4422926;28;656507;-66
2021/08/05 07:05:46;;;;;;;3.30;3.00;;;17.70;99.90;;;;;;4400356;28;655490;-65
2021/08/05 07:08:34;;;;;;;4.40;3.37;;;17.70;99.90;;;;;;4405115;28;656035;-65
2021/08/05 07:11:21;;;;;;;3.30;3.00;;;17.70;99.90;;;;;;4429124;28;656851;-65
2021/08/05 07:14:10;;;;;;;2.80;2.47;;;17.60;99.90;;;;;;4405211;28;655744;-66
2021/08/05 07:16:57;;;;;;;2.43;2.23;;;17.50;99.90;;;;;;4422515;28;655682;-65
2021/08/05 07:19:45;;;;;;;3.47;2.57;;;17.50;99.90;;;;;;4397015;28;656884;-66
2021/08/05 07:22:35;;;;;;;2.83;2.53;;;17.40;99.90;;;;;;4406612;28;655535;-66
2021/08/05 07:25:22;;;;;;;2.67;2.47;;;17.30;99.90;;;;;;4415064;28;655642;-66
2021/08/05 07:28:10;;;;;;;3.27;2.60;;;17.30;99.90;;;;;;4396358;28;656179;-66
2021/08/05 07:30:58;;;;;;;4.70;2.70;;;17.30;99.90;;;;;;4436997;28;655374;-66
2021/08/05 07:33:48;;;;;;;5.20;2.40;;;17.20;99.90;;;;;;4419399;28;655848;-65
2021/08/05 07:36:35;;;;;;;3.13;2.70;;;17.20;99.90;;;;;;4416366;28;656358;-66
2021/08/05 07:39:24;;;;;;;3.00;2.63;;;17.20;99.90;;;;;;4411878;28;655433;-66
2021/08/05 07:42:13;;;;;;;2.97;2.70;;;17.10;99.90;;;;;;4432853;28;655462;-66
2021/08/05 07:45:01;;;;;;;2.60;2.40;;;17.10;99.90;;;;;;4400565;28;656534;-66
2021/08/05 07:47:48;;;;;;;3.87;2.60;;;17.10;99.90;;;;;;4415973;28;656570;-65
2021/08/05 07:50:36;;;;;;;2.53;2.33;;;17.10;99.90;;;;;;4419092;28;656221;-66
2021/08/05 07:53:24;;;;;;;2.47;2.27;;;17.00;99.90;;;;;;4410485;28;656236;-66
2021/08/05 07:56:13;;;;;;;2.50;2.30;;;17.00;99.90;;;;;;4437350;28;656365;-66
2021/08/05 07:59:02;;;;;;;2.63;2.43;;;17.00;99.90;;;;;;4410156;28;656290;-66
2021/08/05 08:01:50;;;;;;;4.00;2.33;;;17.00;99.90;;;;;;4408257;28;656291;-66
2021/08/05 08:04:38;;;;;;;3.73;2.40;;;16.90;99.90;;;;;;4409180;28;655653;-66
2021/08/05 08:07:26;;;;;;;3.50;2.70;;;16.90;99.90;;;;;;4422736;28;655937;-66
2021/08/05 08:10:14;;;;;;;3.27;2.97;;;16.90;99.90;;;;;;4403754;28;655897;-66
2021/08/05 08:13:03;;;;;;;9.57;3.07;;;16.90;99.90;;;;;;4420978;28;656778;-66
2021/08/05 08:15:50;;;;;;;4.17;2.50;;;16.90;99.90;;;;;;4396136;28;655663;-67
2021/08/05 08:18:38;;;;;;;3.60;2.30;;;16.80;99.90;;;;;;4407883;28;655630;-66
2021/08/05 08:21:26;;;;;;;3.07;2.50;;;16.90;99.90;;;;;;4426823;28;656421;-66
2021/08/05 08:24:14;;;;;;;3.00;2.33;;;16.80;99.90;;;;;;4412570;28;655770;-66
2021/08/05 08:27:02;;;;;;;2.23;2.03;;;16.90;99.90;;;;;;4420087;28;655889;-66
2021/08/05 08:29:51;;;;;;;2.70;2.37;;;16.90;99.90;;;;;;4424123;28;656744;-66
2021/08/05 08:32:39;;;;;;;3.50;2.50;;;16.90;99.90;;;;;;4409081;28;655584;-67
2021/08/05 08:35:27;;;;;;;2.20;2.00;;;17.00;99.90;;;;;;4414767;28;656254;-66
2021/08/05 08:38:14;;;;;;;2.40;2.20;;;17.00;99.90;;;;;;4401627;28;655611;-66
2021/08/05 08:41:02;;;;;;;3.27;2.10;;;17.10;99.90;;;;;;4431238;28;655663;-66
2021/08/05 08:43:49;;;;;;;3.20;2.20;;;17.10;99.90;;;;;;4405773;28;656220;-66
2021/08/05 08:46:38;;;;;;;2.60;2.00;;;17.20;99.90;;;;;;4419525;28;655811;-67
2021/08/05 08:49:26;;;;;;;2.07;1.87;;;17.20;99.90;;;;;;4403312;28;655717;-66
2021/08/05 08:52:13;;;;;;;2.60;1.90;;;17.30;99.90;;;;;;4415924;28;655602;-66
2021/08/05 08:55:02;;;;;;;2.90;1.87;;;17.30;99.90;;;;;;4441446;28;656276;-66
2021/08/05 08:57:49;;;;;;;2.73;2.17;;;17.40;99.90;;;;;;4403130;28;655692;-66
2021/08/05 09:00:37;;;;;;;4.17;2.50;;;17.50;99.90;;;;;;4435716;28;655098;-66
2021/08/05 09:03:26;;;;;;;2.77;2.10;;;17.50;99.90;;;;;;4397987;28;656489;-66
2021/08/05 09:06:14;;;;;;;2.80;2.40;;;17.40;99.90;;;;;;4405441;28;655920;-66
2021/08/05 09:09:02;;;;;;;2.53;2.30;;;17.50;99.90;;;;;;4448810;28;655520;-67
2021/08/05 09:11:49;;;;;;;4.07;2.60;;;17.50;99.90;;;;;;4421916;28;655798;-66
2021/08/05 09:14:44;;;;;;;2.47;2.27;;;17.60;99.90;;;;;;4422505;28;655785;-66
2021/08/05 09:17:33;;;;;;;3.77;2.37;;;17.60;99.90;;;;;;4423499;28;655592;-66
2021/08/05 09:20:22;;;;;;;3.17;2.87;;;17.70;99.90;;;;;;4425059;28;656241;-66
2021/08/05 09:23:10;;;;;;;4.47;3.40;;;17.60;99.90;;;;;;4406725;28;656037;-67
2021/08/05 09:25:57;;;;;;;3.40;3.10;;;17.70;99.90;;;;;;4418563;28;655320;-67
2021/08/05 09:28:45;;;;;;;3.43;3.00;;;17.60;99.90;;;;;;4407551;28;656527;-66
2021/08/05 09:31:34;;;;;;;2.60;2.40;;;17.70;99.90;;;;;;4419856;28;655600;-66
2021/08/05 09:34:22;;;;;;;3.27;2.93;;;17.70;99.90;;;;;;4430631;28;657079;-66
2021/08/05 09:37:14;;;;;;;4.70;3.15;;;17.70;99.90;;;;;;4415334;28;656206;-66
2021/08/05 09:40:06;;;;;;;4.27;3.53;;;17.60;99.90;;;;;;4395704;28;655885;-66
2021/08/05 09:42:56;;;;;;;5.00;3.80;;;17.60;99.90;;;;;;4385258;28;656244;-66
2021/08/05 09:45:44;;;;;;;4.13;3.47;;;17.60;99.90;;;;;;4399628;28;655923;-67
2021/08/05 09:48:36;;;;;;;5.20;3.90;;;17.60;99.90;;;;;;4418553;28;656262;-66
2021/08/05 09:51:24;;;;;;;4.20;3.80;;;17.70;99.90;;;;;;4378845;28;656079;-66
2021/08/05 09:54:13;;;;;;;5.53;4.07;;;17.70;99.90;;;;;;4432291;28;656456;-66
2021/08/05 09:57:00;;;;;;;5.20;4.47;;;17.80;99.90;;;;;;4398726;28;655858;-66
2021/08/05 09:59:55;;;;;;;5.70;4.93;;;17.90;99.90;;;;;;4402359;28;655443;-66
2021/08/05 10:02:44;;;;;;;7.07;4.23;;;17.90;99.90;;;;;;4375056;28;655486;-66
2021/08/05 10:05:31;;;;;;;4.93;4.40;;;17.90;99.90;;;;;;4416819;28;656082;-66
2021/08/05 10:08:32;;;;;;;8.77;5.40;;;18.00;99.90;;;;;;4406374;28;655630;-66
2021/08/05 10:11:21;;;;;;;6.43;5.73;;;18.00;99.90;;;;;;4409971;28;655525;-66
2021/08/05 10:14:21;;;;;;;7.70;6.20;;;18.00;99.90;;;;;;4400626;28;655335;-66
2021/08/05 10:17:08;;;;;;;7.67;6.37;;;17.80;99.90;;;;;;4384893;28;655593;-66
2021/08/05 10:19:56;;;;;;;7.87;5.90;;;17.80;99.90;;;;;;4427979;28;657570;-67
2021/08/05 10:22:44;;;;;;;7.57;5.50;;;17.70;99.90;;;;;;4410440;28;656712;-67
2021/08/05 10:25:31;;;;;;;7.80;6.43;;;17.70;99.90;;;;;;4444113;28;656452;-66
2021/08/05 10:28:20;;;;;;;11.63;5.70;;;17.60;99.90;;;;;;4398100;28;656912;-67
2021/08/05 10:31:10;;;;;;;15.93;6.20;;;17.60;99.90;;;;;;4409509;28;658586;-66
2021/08/05 10:33:57;;;;;;;27.57;8.77;;;17.60;99.90;;;;;;4441542;28;658039;-67
2021/08/05 10:36:45;;;;;;;10.80;5.47;;;17.70;99.90;;;;;;4415496;28;659167;-66
2021/08/05 10:39:34;;;;;;;8.40;5.27;;;17.70;99.90;;;;;;4436845;28;658133;-66
2021/08/05 10:42:21;;;;;;;12.57;5.10;;;17.70;99.90;;;;;;4440167;28;657113;-66
2021/08/05 10:45:11;;;;;;;9.27;4.30;;;17.70;99.90;;;;;;4411754;28;657882;-66
2021/08/05 10:48:00;;;;;;;14.57;5.23;;;17.80;99.90;;;;;;4427050;28;657068;-67
2021/08/05 10:50:48;;;;;;;14.23;3.90;;;17.90;99.90;;;;;;4439890;28;657086;-67
2021/08/05 10:53:42;;;;;;;9.77;3.80;;;18.00;99.90;;;;;;4420629;28;658687;-66
2021/08/05 10:56:31;;;;;;;9.33;3.43;;;17.90;99.90;;;;;;4394294;28;657481;-66
2021/08/05 10:59:18;;;;;;;7.13;3.83;;;17.90;99.90;;;;;;4426936;28;656865;-66
2021/08/05 11:02:07;;;;;;;6.90;3.90;;;17.90;99.90;;;;;;4448323;28;657813;-66
2021/08/05 11:04:55;;;;;;;9.10;3.90;;;17.90;99.90;;;;;;4417775;28;657957;-66
2021/08/05 11:07:43;;;;;;;12.27;4.73;;;17.80;99.90;;;;;;4420212;28;656710;-66
2021/08/05 11:10:33;;;;;;;13.40;5.40;;;17.70;99.90;;;;;;4437788;28;658605;-67
2021/08/05 11:13:23;;;;;;;17.80;5.50;;;17.60;99.90;;;;;;4409208;28;658475;-66
2021/08/05 11:16:11;;;;;;;25.90;9.37;;;17.50;99.90;;;;;;4410211;28;657792;-66
2021/08/05 11:19:24;;;;;;;28.73;13.30;;;17.50;99.90;;;;;;4412029;28;658419;-66
2021/08/05 11:22:53;;;;;;;25.50;10.87;;;17.40;99.90;;;;;;4405940;28;659152;-66
2021/08/05 11:26:05;;;;;;;20.00;10.10;;;17.40;99.90;;;;;;4395523;28;658418;-66
2021/08/05 11:28:55;;;;;;;10.83;5.10;;;17.30;99.90;;;;;;4393031;28;660022;-66
2021/08/05 11:31:42;;;;;;;28.80;12.50;;;17.20;99.90;;;;;;4431703;28;658030;-67
2021/08/05 11:34:52;;;;;;;24.87;11.60;;;17.20;99.90;;;;;;4415100;28;659523;-67
2021/08/05 11:37:40;;;;;;;16.23;7.63;;;17.20;99.90;;;;;;4400506;28;659243;-66
2021/08/05 11:40:41;;;;;;;19.17;10.80;;;17.20;99.90;;;;;;4438646;28;657696;-66
2021/08/05 11:43:30;;;;;;;21.67;11.87;;;17.10;99.90;;;;;;4396328;28;659095;-66
2021/08/05 11:46:21;;;;;;;18.13;10.33;;;17.10;99.90;;;;;;4424547;28;658808;-66
2021/08/05 11:49:11;;;;;;;14.87;10.43;;;17.20;99.90;;;;;;4417080;28;658731;-66
2021/08/05 11:52:01;;;;;;;18.53;11.77;;;17.10;99.90;;;;;;4412642;28;659166;-66
2021/08/05 11:54:49;;;;;;;11.83;8.77;;;17.10;99.90;;;;;;4401656;28;658993;-66
2021/08/05 11:57:41;;;;;;;13.97;10.80;;;17.00;99.90;;;;;;4425469;28;657492;-66
2021/08/05 12:00:29;;;;;;;34.70;17.93;;;17.00;99.90;;;;;;4386052;28;658932;-66
2021/08/05 12:03:17;;;;;;;15.77;11.00;;;17.00;99.90;;;;;;4437983;28;658338;-66
2021/08/05 12:06:04;;;;;;;30.50;16.37;;;17.00;99.90;;;;;;4413608;28;658543;-66
2021/08/05 12:09:17;;;;;;;22.57;13.77;;;17.00;99.90;;;;;;4443747;28;659374;-66
2021/08/05 12:12:05;;;;;;;38.77;15.23;;;17.10;99.90;;;;;;4409571;28;658787;-66
2021/08/05 12:14:56;;;;;;;56.70;23.13;;;17.00;99.90;;;;;;4428766;28;658580;-67
2021/08/05 12:17:48;;;;;;;16.00;10.03;;;17.00;99.90;;;;;;4409826;28;658462;-66
2021/08/05 12:20:37;;;;;;;16.00;10.77;;;17.10;99.90;;;;;;4418111;28;659432;-67
2021/08/05 12:23:28;;;;;;;17.60;12.23;;;17.10;99.90;;;;;;4420472;28;659984;-66
2021/08/05 12:26:18;;;;;;;19.67;12.13;;;17.10;99.90;;;;;;4425522;28;659413;-66
2021/08/05 12:29:09;;;;;;;17.47;12.07;;;17.00;99.90;;;;;;4419248;28;659387;-66
2021/08/05 12:31:57;;;;;;;14.37;9.93;;;17.00;99.90;;;;;;4415462;28;658473;-66
2021/08/05 12:34:47;;;;;;;15.87;9.03;;;17.00;99.90;;;;;;4403050;28;657732;-66
2021/08/05 12:37:35;;;;;;;14.17;9.60;;;17.00;99.90;;;;;;4423190;28;658421;-66
2021/08/05 12:40:23;;;;;;;9.97;7.80;;;17.00;99.90;;;;;;4415934;28;658299;-66
2021/08/05 12:43:13;;;;;;;15.83;9.67;;;17.00;99.90;;;;;;4422096;28;657092;-66
2021/08/05 12:46:01;;;;;;;21.93;12.90;;;17.10;99.90;;;;;;4418758;28;658442;-67
2021/08/05 12:48:51;;;;;;;10.20;7.63;;;17.10;99.90;;;;;;4395874;28;659382;-66
2021/08/05 12:51:38;;;;;;;8.97;6.30;;;17.20;99.90;;;;;;4407571;28;657914;-67
2021/08/05 12:54:26;;;;;;;7.47;6.10;;;17.20;99.90;;;;;;4444135;28;656877;-66
2021/08/05 12:57:14;;;;;;;27.10;14.83;;;17.30;99.90;;;;;;4424382;28;656491;-66
2021/08/05 13:00:03;;;;;;;39.03;18.57;;;17.30;99.90;;;;;;4438475;28;659641;-66
2021/08/05 13:03:02;;;;;;;10.63;7.70;;;17.30;99.90;;;;;;4390932;28;659581;-67
2021/08/05 13:05:54;;;;;;;9.83;8.00;;;17.40;99.90;;;;;;4397946;28;657410;-67
2021/08/05 13:08:42;;;;;;;7.63;5.33;;;17.40;99.90;;;;;;4407130;28;656920;-67
2021/08/05 13:11:37;;;;;;;5.10;4.30;;;17.40;99.90;;;;;;4420343;28;656832;-66
2021/08/05 13:14:31;;;;;;;5.70;4.93;;;17.40;99.90;;;;;;4379475;28;657374;-66
2021/08/05 13:17:20;;;;;;;6.17;5.40;;;17.30;99.90;;;;;;4376875;28;656405;-66
2021/08/05 13:20:10;;;;;;;6.93;5.57;;;17.40;99.90;;;;;;4410592;28;656937;-66
2021/08/05 13:22:58;;;;;;;8.30;5.83;;;17.40;99.90;;;;;;4418454;28;656662;-66
2021/08/05 13:25:46;;;;;;;11.10;7.50;;;17.30;99.90;;;;;;4442493;28;657289;-66
2021/08/05 13:28:38;;;;;;;7.97;6.13;;;17.30;99.90;;;;;;4415415;28;657615;-67
2021/08/05 13:31:25;;;;;;;40.67;13.43;;;17.30;99.90;;;;;;4423010;28;657114;-66
2021/08/05 13:34:14;;;;;;;50.83;21.70;;;17.30;99.90;;;;;;4415129;28;659003;-66
2021/08/05 13:37:02;;;;;;;15.20;9.70;;;17.30;99.90;;;;;;4443069;28;659201;-66
2021/08/05 13:39:51;;;;;;;10.20;6.87;;;17.20;99.90;;;;;;4413232;28;658776;-66
2021/08/05 13:42:39;;;;;;;10.73;7.20;;;17.10;99.90;;;;;;4417247;28;657779;-66
2021/08/05 13:45:26;;;;;;;14.20;8.53;;;17.10;99.90;;;;;;4437556;28;656947;-66
2021/08/05 13:48:15;;;;;;;8.20;6.40;;;17.10;99.90;;;;;;4413510;28;657870;-67
2021/08/05 13:51:04;;;;;;;7.83;5.50;;;17.00;99.90;;;;;;4443066;28;657395;-66
2021/08/05 13:53:51;;;;;;;7.30;5.20;;;17.00;99.90;;;;;;4418856;28;657141;-66
2021/08/05 13:56:39;;;;;;;4.33;3.33;;;17.00;99.90;;;;;;4417825;28;656539;-66
2021/08/05 13:59:27;;;;;;;5.60;3.70;;;17.00;99.90;;;;;;4444734;28;656363;-66
2021/08/05 14:02:14;;;;;;;3.67;3.03;;;17.00;99.90;;;;;;4422618;28;657292;-66
2021/08/05 14:05:03;;;;;;;6.20;4.65;;;16.90;99.90;;;;;;4420776;28;656601;-66
2021/08/05 14:07:53;;;;;;;7.67;5.47;;;17.00;99.90;;;;;;4396915;28;657115;-66
2021/08/05 14:10:42;;;;;;;5.67;4.40;;;16.90;99.90;;;;;;4413329;28;657405;-66
2021/08/05 14:13:30;;;;;;;5.50;3.80;;;16.90;99.90;;;;;;4418573;28;657545;-66
2021/08/05 14:16:17;;;;;;;6.93;4.60;;;16.90;99.90;;;;;;4442318;28;656311;-67
2021/08/05 14:19:05;;;;;;;4.20;2.87;;;16.90;99.90;;;;;;4416036;28;657404;-66
2021/08/05 14:21:52;;;;;;;5.30;3.30;;;16.90;99.90;;;;;;4432575;28;656282;-67
2021/08/05 14:24:41;;;;;;;4.10;3.40;;;16.80;99.90;;;;;;4425247;28;657449;-66